Terminal Aerodrome Forecast
Issued by NWS

Home | Current Version | Previous Version | Text Only | Print | Product List | Glossary On
Versions: 1 2 3 4 5 6 7 8 9 10 11 12 13 14 15 16 17 18 19 20
000
FTUS43 KGRB 260353 AAB
TAFAUW
TAF AMD
KAUW 260353Z 2604/2624 17006KT 6SM BR SCT009 OVC030
     FM260900 VRB03KT 2SM BR OVC005
     FM261500 23008KT P6SM SCT018 OVC025
     FM261900 24009G15KT P6SM SCT025 BKN040
     FM262300 19006KT P6SM SCT040 BKN250=

USA.gov is the U.S. government's official web portal to all federal, state and local government web resources and services.